Time;durP1;ratioP1;P1;durP2;ratioP2;P2;SDS_P1;SDS_P2;PMS_P1;PMS_P2;Temp;Humidity;BMP_temperature;BMP_pressure;BME280_temperature;BME280_humidity;BME280_pressure;Samples;Min_cycle;Max_cycle;Signal;HPM_P1;HPM_P2
2024/04/19 00:02:29;;;;;;;1.77;1.33;;;;;;;;;;5380575;26;20020;-75
2024/04/19 00:05:03;;;;;;;1.80;1.27;;;;;;;;;;5373863;26;19993;-75
2024/04/19 00:07:31;;;;;;;2.53;1.20;;;;;;;;;;5401091;26;20049;-77
2024/04/19 00:10:00;;;;;;;2.13;1.33;;;;;;;;;;5394606;26;19999;-76
2024/04/19 00:12:28;;;;;;;1.93;1.00;;;;;;;;;;5393526;26;20002;-75
2024/04/19 00:15:02;;;;;;;2.17;1.17;;;;;;;;;;5379559;26;19989;-75
2024/04/19 00:17:33;;;;;;;1.57;1.30;;;;;;;;;;5378393;26;20001;-76
2024/04/19 00:20:01;;;;;;;2.63;1.20;;;;;;;;;;5394219;26;20004;-75
2024/04/19 00:22:27;;;;;;;3.40;1.30;;;;;;;;;;5398639;26;20013;-75
2024/04/19 00:24:53;;;;;;;2.83;1.20;;;;;;;;;;5393576;26;19992;-74
2024/04/19 00:27:24;;;;;;;3.20;1.30;;;;;;;;;;5377951;26;20039;-75
2024/04/19 00:29:52;;;;;;;2.40;1.40;;;;;;;;;;5396934;26;19988;-77
2024/04/19 00:32:21;;;;;;;2.67;1.60;;;;;;;;;;5380663;26;20160;-76
2024/04/19 00:34:47;;;;;;;2.73;1.20;;;;;;;;;;5372972;26;19999;-75
2024/04/19 00:37:13;;;;;;;2.67;1.50;;;;;;;;;;5379129;26;20008;-75
2024/04/19 00:39:49;;;;;;;3.43;1.67;;;;;;;;;;5394128;26;20001;-76
2024/04/19 00:42:15;;;;;;;2.63;1.70;;;;;;;;;;5393788;26;20057;-76
2024/04/19 00:44:48;;;;;;;3.33;1.50;;;;;;;;;;5399374;26;20008;-76
2024/04/19 00:47:15;;;;;;;1.43;1.17;;;;;;;;;;5378094;26;19989;-75
2024/04/19 00:49:43;;;;;;;2.47;1.67;;;;;;;;;;5380460;26;20040;-75
2024/04/19 00:52:18;;;;;;;2.07;1.70;;;;;;;;;;5385488;26;20004;-75
2024/04/19 00:54:48;;;;;;;2.33;1.80;;;;;;;;;;5376813;26;19992;-75
2024/04/19 00:57:14;;;;;;;2.83;1.80;;;;;;;;;;5398926;26;19992;-75
2024/04/19 00:59:44;;;;;;;5.50;2.57;;;;;;;;;;5377671;26;20008;-75
2024/04/19 01:02:12;;;;;;;6.33;2.23;;;;;;;;;;5396451;26;19992;-75
2024/04/19 01:04:38;;;;;;;3.77;2.47;;;;;;;;;;5372827;26;20018;-76
2024/04/19 01:07:10;;;;;;;3.33;2.50;;;;;;;;;;5377296;26;20000;-78
2024/04/19 01:09:36;;;;;;;5.67;3.43;;;;;;;;;;5394384;26;19998;-78
2024/04/19 01:12:04;;;;;;;6.60;3.20;;;;;;;;;;5377307;26;20243;-78
2024/04/19 01:14:32;;;;;;;5.57;3.33;;;;;;;;;;5377170;26;19985;-77
2024/04/19 01:17:00;;;;;;;7.70;4.00;;;;;;;;;;5374167;26;19993;-78
2024/04/19 01:19:26;;;;;;;6.27;3.63;;;;;;;;;;5387251;26;20073;-78
2024/04/19 01:21:53;;;;;;;7.17;3.40;;;;;;;;;;5370594;26;19997;-78
2024/04/19 01:24:42;;;;;;;6.47;4.13;;;;;;;;;;5370063;26;19993;-78
2024/04/19 01:27:15;;;;;;;7.60;3.67;;;;;;;;;;5365816;26;20012;-78
2024/04/19 01:29:42;;;;;;;6.20;3.90;;;;;;;;;;5384412;26;19992;-79
2024/04/19 01:32:10;;;;;;;8.60;4.90;;;;;;;;;;5380574;26;20000;-79
2024/04/19 01:34:39;;;;;;;10.27;4.87;;;;;;;;;;5398901;26;20008;-78
2024/04/19 01:37:13;;;;;;;8.87;5.13;;;;;;;;;;5393123;26;19985;-78
2024/04/19 01:39:45;;;;;;;8.53;5.50;;;;;;;;;;5396095;26;20024;-78
2024/04/19 01:42:14;;;;;;;11.00;5.38;;;;;;;;;;5395502;26;20003;-78
2024/04/19 01:44:40;;;;;;;11.03;6.00;;;;;;;;;;5377372;26;20009;-78
2024/04/19 01:47:11;;;;;;;12.83;5.83;;;;;;;;;;5392107;26;20044;-78
2024/04/19 01:49:38;;;;;;;11.03;6.10;;;;;;;;;;5394516;26;20009;-78
2024/04/19 01:52:07;;;;;;;9.23;5.47;;;;;;;;;;5371507;26;19985;-78
2024/04/19 01:54:40;;;;;;;10.33;5.87;;;;;;;;;;5375500;26;20169;-78
2024/04/19 01:57:06;;;;;;;11.47;6.13;;;;;;;;;;5392632;26;19989;-78
2024/04/19 01:59:34;;;;;;;7.97;5.20;;;;;;;;;;5391959;26;20004;-78
2024/04/19 02:02:03;;;;;;;9.20;6.07;;;;;;;;;;5372626;26;20074;-78
2024/04/19 02:04:31;;;;;;;8.33;5.57;;;;;;;;;;5392756;26;19998;-78
2024/04/19 02:06:59;;;;;;;7.97;5.83;;;;;;;;;;5395144;26;20000;-78
2024/04/19 02:09:33;;;;;;;9.37;5.07;;;;;;;;;;5393977;26;20012;-78
2024/04/19 02:12:07;;;;;;;9.20;5.87;;;;;;;;;;5391694;26;19985;-78
2024/04/19 02:14:39;;;;;;;12.30;6.63;;;;;;;;;;5390800;26;20004;-79
2024/04/19 02:17:07;;;;;;;8.25;5.20;;;;;;;;;;5393578;26;20188;-79
2024/04/19 02:19:39;;;;;;;10.27;6.00;;;;;;;;;;5393015;26;19995;-78
2024/04/19 02:22:08;;;;;;;12.33;5.93;;;;;;;;;;5368840;26;20047;-79
2024/04/19 02:24:43;;;;;;;11.93;5.57;;;;;;;;;;5391962;26;19985;-79
2024/04/19 02:30:52;;;;;;;8.77;5.47;;;;;;;;;;5389853;26;20039;-79
2024/04/19 02:32:49;;;;;;;10.80;5.63;;;;;;;;;;5380507;26;20000;-79
2024/04/19 02:35:17;;;;;;;10.43;6.07;;;;;;;;;;5392830;26;19993;-78
2024/04/19 02:37:44;;;;;;;9.03;6.40;;;;;;;;;;5371949;26;20016;-79
2024/04/19 02:40:17;;;;;;;9.37;6.17;;;;;;;;;;5373704;26;20019;-80
2024/04/19 02:42:45;;;;;;;9.30;6.27;;;;;;;;;;5390455;26;19985;-78
2024/04/19 02:45:11;;;;;;;11.90;6.90;;;;;;;;;;5375303;26;19999;-79
2024/04/19 02:47:39;;;;;;;8.63;5.30;;;;;;;;;;5392661;26;19996;-78
2024/04/19 02:50:14;;;;;;;8.50;5.63;;;;;;;;;;5392323;26;19985;-79
2024/04/19 02:52:43;;;;;;;11.57;5.27;;;;;;;;;;5373130;26;20024;-78
2024/04/19 02:55:12;;;;;;;8.23;5.17;;;;;;;;;;5389903;26;20005;-78
2024/04/19 02:57:38;;;;;;;10.10;5.70;;;;;;;;;;5391182;26;19989;-79
2024/04/19 03:00:08;;;;;;;7.20;4.60;;;;;;;;;;5377730;26;20012;-78
2024/04/19 03:02:37;;;;;;;7.73;4.57;;;;;;;;;;5390246;26;20361;-78
2024/04/19 03:05:10;;;;;;;6.67;4.70;;;;;;;;;;5392765;26;20005;-78
2024/04/19 03:07:39;;;;;;;7.40;4.43;;;;;;;;;;5390880;26;20109;-78
2024/04/19 03:10:08;;;;;;;6.23;4.60;;;;;;;;;;5389845;26;19997;-78
2024/04/19 03:12:34;;;;;;;7.13;4.57;;;;;;;;;;5372964;26;19996;-79
2024/04/19 03:15:07;;;;;;;7.60;4.50;;;;;;;;;;5387655;26;20005;-79
2024/04/19 03:17:36;;;;;;;6.83;4.30;;;;;;;;;;5376731;26;20013;-79
2024/04/19 03:20:05;;;;;;;7.70;4.87;;;;;;;;;;5388454;26;20008;-79
2024/04/19 03:22:44;;;;;;;8.80;4.40;;;;;;;;;;5378001;26;19997;-78
2024/04/19 03:25:17;;;;;;;8.30;4.07;;;;;;;;;;5371352;26;20001;-78
2024/04/19 03:27:57;;;;;;;8.33;4.73;;;;;;;;;;5375681;26;20000;-79
2024/04/19 03:30:36;;;;;;;12.10;5.00;;;;;;;;;;5394359;26;20016;-78
2024/04/19 03:33:07;;;;;;;7.77;4.40;;;;;;;;;;5391826;26;20025;-79
2024/04/19 03:35:39;;;;;;;6.83;4.00;;;;;;;;;;5380713;26;20025;-79
2024/04/19 03:38:05;;;;;;;6.38;3.95;;;;;;;;;;5394863;26;20011;-80
2024/04/19 03:40:31;;;;;;;6.57;3.60;;;;;;;;;;5389858;26;19988;-79
2024/04/19 03:43:02;;;;;;;10.47;3.97;;;;;;;;;;5383364;26;19999;-79
2024/04/19 03:45:48;;;;;;;6.53;4.10;;;;;;;;;;5387829;26;19996;-79
2024/04/19 03:48:16;;;;;;;8.70;4.57;;;;;;;;;;5391833;26;19996;-79
2024/04/19 03:50:46;;;;;;;8.00;3.70;;;;;;;;;;5378892;26;20045;-79
2024/04/19 03:53:15;;;;;;;7.73;3.97;;;;;;;;;;5393503;26;20016;-79
2024/04/19 03:55:46;;;;;;;5.67;3.67;;;;;;;;;;5369545;26;20522;-79
2024/04/19 03:58:14;;;;;;;6.60;4.30;;;;;;;;;;5395104;26;20000;-78
2024/04/19 04:00:40;;;;;;;4.60;3.27;;;;;;;;;;5381430;26;20010;-79
2024/04/19 04:03:07;;;;;;;9.03;4.00;;;;;;;;;;5378420;26;20012;-79
2024/04/19 04:05:34;;;;;;;5.73;3.13;;;;;;;;;;5394267;26;21743;-79
2024/04/19 04:08:02;;;;;;;5.70;3.53;;;;;;;;;;5389572;26;20049;-79
2024/04/19 04:10:28;;;;;;;6.30;2.83;;;;;;;;;;5393887;26;19989;-79
2024/04/19 04:12:56;;;;;;;3.83;2.47;;;;;;;;;;5378309;26;20021;-79
2024/04/19 04:15:29;;;;;;;3.43;2.27;;;;;;;;;;5391245;26;20002;-79
2024/04/19 04:17:55;;;;;;;5.33;1.90;;;;;;;;;;5378346;26;20008;-79
2024/04/19 04:20:30;;;;;;;5.07;1.90;;;;;;;;;;5400161;26;19996;-79
2024/04/19 04:23:02;;;;;;;3.50;1.63;;;;;;;;;;5375188;26;20020;-80
2024/04/19 04:25:39;;;;;;;6.68;1.98;;;;;;;;;;5396213;26;20016;-80
2024/04/19 04:28:08;;;;;;;4.03;1.77;;;;;;;;;;5397215;26;20036;-80
2024/04/19 04:30:35;;;;;;;2.53;1.60;;;;;;;;;;5382999;26;19992;-80
2024/04/19 04:33:04;;;;;;;6.90;1.97;;;;;;;;;;5374828;26;20008;-80
2024/04/19 04:35:30;;;;;;;4.10;1.77;;;;;;;;;;5397552;26;19998;-80
2024/04/19 04:37:59;;;;;;;3.93;2.03;;;;;;;;;;5383243;26;20004;-80
2024/04/19 04:40:33;;;;;;;3.77;1.67;;;;;;;;;;5408139;26;19993;-81
2024/04/19 04:43:02;;;;;;;2.70;1.40;;;;;;;;;;5395413;26;20004;-80
2024/04/19 04:45:31;;;;;;;2.87;1.50;;;;;;;;;;5383481;26;19992;-80
2024/04/19 04:48:00;;;;;;;3.80;1.70;;;;;;;;;;5381210;26;19986;-80
2024/04/19 04:50:29;;;;;;;3.13;1.23;;;;;;;;;;5378925;26;19996;-80
2024/04/19 04:53:02;;;;;;;3.70;1.60;;;;;;;;;;5393487;26;20000;-80
2024/04/19 04:55:34;;;;;;;3.37;1.40;;;;;;;;;;5379891;26;19989;-80
2024/04/19 04:58:00;;;;;;;;;;;;;;;;;;5400374;26;19992;-76
2024/04/19 05:00:44;;;;;;;1.97;1.17;;;;;;;;;;5378633;26;19984;-80
2024/04/19 05:03:12;;;;;;;1.57;0.80;;;;;;;;;;5401307;26;19993;-80
2024/04/19 05:05:39;;;;;;;1.40;0.93;;;;;;;;;;5380920;26;19992;-80
2024/04/19 05:08:09;;;;;;;4.30;1.07;;;;;;;;;;5391102;26;19991;-80
2024/04/19 05:10:35;;;;;;;6.43;0.90;;;;;;;;;;5390523;26;20015;-80
2024/04/19 05:13:04;;;;;;;1.53;1.00;;;;;;;;;;5351185;26;20001;-80
2024/04/19 05:15:30;;;;;;;4.17;1.17;;;;;;;;;;5385348;26;20015;-80
2024/04/19 05:17:56;;;;;;;3.83;0.93;;;;;;;;;;5360991;26;20054;-80
2024/04/19 05:20:42;;;;;;;;;;;;;;;;;;;;;
2024/04/19 05:23:13;;;;;;;1.87;0.90;;;;;;;;;;5358368;26;20000;-80
2024/04/19 05:25:50;;;;;;;3.33;0.80;;;;;;;;;;5724424;21;20038;-80
2024/04/19 05:31:31;;;;;;;1.80;1.07;;;;;;;;;;5369159;26;20017;-77
2024/04/19 05:34:05;;;;;;;1.17;0.50;;;;;;;;;;5374851;26;19992;-80
2024/04/19 05:36:31;;;;;;;1.63;0.83;;;;;;;;;;5421906;26;20001;-80
2024/04/19 05:39:05;;;;;;;4.03;1.00;;;;;;;;;;5423806;26;20057;-80
2024/04/19 05:41:36;;;;;;;1.70;0.80;;;;;;;;;;5365329;26;20000;-79
2024/04/19 05:44:04;;;;;;;1.20;0.70;;;;;;;;;;5364773;26;20000;-80
2024/04/19 05:46:43;;;;;;;0.80;0.60;;;;;;;;;;5372763;26;20023;-80
2024/04/19 05:49:20;;;;;;;2.70;0.57;;;;;;;;;;5422075;26;20004;-80
2024/04/19 05:51:58;;;;;;;2.57;0.60;;;;;;;;;;5420608;26;20096;-80
2024/04/19 05:54:31;;;;;;;2.73;0.63;;;;;;;;;;5363691;26;19993;-79
2024/04/19 05:56:59;;;;;;;1.50;0.57;;;;;;;;;;5362980;26;19989;-80
2024/04/19 05:59:31;;;;;;;2.93;0.67;;;;;;;;;;5422144;26;20012;-80
2024/04/19 06:01:57;;;;;;;0.60;0.50;;;;;;;;;;5363154;26;20035;-80
2024/04/19 06:04:23;;;;;;;0.80;0.50;;;;;;;;;;5421942;26;20000;-80
2024/04/19 06:06:55;;;;;;;1.10;0.60;;;;;;;;;;5364183;26;20003;-80
2024/04/19 06:12:13;;;;;;;2.47;1.53;;;;;;;;;;5360096;26;21026;-79
2024/04/19 06:14:39;;;;;;;1.13;0.40;;;;;;;;;;5374394;26;19997;-80
2024/04/19 06:17:07;;;;;;;7.30;0.70;;;;;;;;;;5419448;26;19989;-79
2024/04/19 06:19:41;;;;;;;1.03;0.47;;;;;;;;;;5421504;26;19993;-80
2024/04/19 06:22:10;;;;;;;0.90;0.60;;;;;;;;;;5420991;26;20005;-79
2024/04/19 06:24:36;;;;;;;0.83;0.50;;;;;;;;;;5361617;26;20083;-79
2024/04/19 06:27:02;;;;;;;16.33;1.33;;;;;;;;;;5362100;26;19996;-79
2024/04/19 06:29:30;;;;;;;1.23;0.80;;;;;;;;;;5362155;26;19993;-79
2024/04/19 06:32:11;;;;;;;3.67;0.87;;;;;;;;;;5362522;26;20004;-79
2024/04/19 06:34:41;;;;;;;0.97;0.43;;;;;;;;;;5420145;26;20000;-79
2024/04/19 06:37:10;;;;;;;0.57;0.40;;;;;;;;;;5361762;26;20007;-79
2024/04/19 06:39:38;;;;;;;0.63;0.60;;;;;;;;;;5420426;26;19989;-80
2024/04/19 06:42:07;;;;;;;1.10;0.60;;;;;;;;;;5420521;26;19989;-80
2024/04/19 06:44:41;;;;;;;2.87;1.67;;;;;;;;;;5360997;26;19997;-80
2024/04/19 06:47:14;;;;;;;3.27;1.50;;;;;;;;;;5359531;26;20004;-80
2024/04/19 06:49:45;;;;;;;1.77;0.90;;;;;;;;;;5369726;26;20001;-80
2024/04/19 06:52:23;;;;;;;2.67;0.77;;;;;;;;;;5360248;26;19985;-80
2024/04/19 06:54:56;;;;;;;0.90;0.80;;;;;;;;;;5374301;26;19993;-79
2024/04/19 06:57:27;;;;;;;3.93;0.60;;;;;;;;;;5371098;26;19996;-80
2024/04/19 06:59:53;;;;;;;0.60;0.60;;;;;;;;;;5359459;26;19997;-80
2024/04/19 07:02:29;;;;;;;0.87;0.50;;;;;;;;;;5358269;26;20052;-80
2024/04/19 07:04:58;;;;;;;1.93;0.63;;;;;;;;;;5420232;26;20012;-79
2024/04/19 07:07:26;;;;;;;2.20;1.00;;;;;;;;;;5362086;26;19993;-79
2024/04/19 07:09:55;;;;;;;2.77;0.53;;;;;;;;;;5361591;26;20032;-79
2024/04/19 07:12:23;;;;;;;0.70;0.60;;;;;;;;;;5419006;26;20011;-79
2024/04/19 07:14:49;;;;;;;1.30;0.70;;;;;;;;;;5373200;26;20018;-79
2024/04/19 07:17:15;;;;;;;1.07;0.63;;;;;;;;;;5417551;26;20105;-79
2024/04/19 07:19:44;;;;;;;1.83;0.63;;;;;;;;;;5360766;26;20225;-79
2024/04/19 07:22:17;;;;;;;1.10;0.80;;;;;;;;;;5419872;26;19997;-79
2024/04/19 07:24:50;;;;;;;3.77;0.60;;;;;;;;;;5360806;26;19985;-79
2024/04/19 07:27:19;;;;;;;2.20;0.83;;;;;;;;;;5359554;26;19993;-79
2024/04/19 07:30:05;;;;;;;0.93;0.50;;;;;;;;;;5370728;26;20005;-79
2024/04/19 07:32:34;;;;;;;1.70;0.80;;;;;;;;;;5419273;26;19996;-78
2024/04/19 07:35:05;;;;;;;1.07;0.80;;;;;;;;;;5361066;26;20001;-78
2024/04/19 07:37:38;;;;;;;1.27;0.93;;;;;;;;;;5359796;26;20059;-79
2024/04/19 07:40:05;;;;;;;1.93;1.20;;;;;;;;;;5420178;26;19993;-80
2024/04/19 07:42:36;;;;;;;3.10;1.03;;;;;;;;;;5424348;26;20001;-80
2024/04/19 07:45:05;;;;;;;1.67;1.23;;;;;;;;;;5424927;26;19997;-80
2024/04/19 07:47:34;;;;;;;3.97;0.90;;;;;;;;;;5366669;26;20355;-81
2024/04/19 07:50:00;;;;;;;1.60;1.00;;;;;;;;;;5425044;26;20011;-80
2024/04/19 07:52:37;;;;;;;1.13;0.87;;;;;;;;;;5423017;26;20004;-80
2024/04/19 07:55:07;;;;;;;3.63;1.10;;;;;;;;;;5423947;26;20048;-81
2024/04/19 07:57:41;;;;;;;1.37;0.87;;;;;;;;;;5628943;21;20016;-79
2024/04/19 08:00:25;;;;;;;2.23;1.30;;;;;;;;;;5359811;26;19992;-80
2024/04/19 08:02:59;;;;;;;4.63;1.30;;;;;;;;;;5384777;26;19977;-80
2024/04/19 08:05:27;;;;;;;2.00;0.90;;;;;;;;;;5382243;26;20060;-80
2024/04/19 08:07:58;;;;;;;2.23;0.93;;;;;;;;;;5386771;26;19998;-80
2024/04/19 08:10:28;;;;;;;2.33;0.90;;;;;;;;;;5386762;26;20000;-80
2024/04/19 08:12:56;;;;;;;1.33;1.03;;;;;;;;;;5389007;26;19993;-82
2024/04/19 08:15:22;;;;;;;1.30;1.03;;;;;;;;;;5389598;26;19996;-81
2024/04/19 08:17:50;;;;;;;2.07;1.40;;;;;;;;;;5380398;26;20005;-80
2024/04/19 08:20:19;;;;;;;1.87;1.23;;;;;;;;;;5394208;26;20444;-80
2024/04/19 08:22:45;;;;;;;2.40;1.50;;;;;;;;;;5394922;26;20004;-80
2024/04/19 08:25:19;;;;;;;4.37;1.60;;;;;;;;;;5387493;26;20019;-80
2024/04/19 08:27:45;;;;;;;1.93;1.23;;;;;;;;;;5398634;26;19992;-80
2024/04/19 08:30:13;;;;;;;2.07;1.63;;;;;;;;;;5378315;26;20008;-80
2024/04/19 08:32:47;;;;;;;2.33;1.83;;;;;;;;;;5411835;26;19994;-80
2024/04/19 08:35:15;;;;;;;2.77;2.00;;;;;;;;;;5416339;26;19989;-80
2024/04/19 08:37:44;;;;;;;2.73;2.07;;;;;;;;;;5387801;26;20000;-80
2024/04/19 08:40:13;;;;;;;3.03;2.07;;;;;;;;;;5382195;26;19984;-80
2024/04/19 08:42:42;;;;;;;3.50;2.10;;;;;;;;;;5388177;26;19988;-80
2024/04/19 08:45:26;;;;;;;3.23;2.30;;;;;;;;;;5385042;26;20011;-80
2024/04/19 08:47:52;;;;;;;2.90;1.93;;;;;;;;;;5380685;26;19996;-80
2024/04/19 08:50:18;;;;;;;3.07;2.37;;;;;;;;;;5381243;26;20004;-80
2024/04/19 08:52:48;;;;;;;3.23;2.50;;;;;;;;;;5411759;26;20000;-79
2024/04/19 08:55:29;;;;;;;4.33;2.70;;;;;;;;;;5381471;26;19992;-79
2024/04/19 08:58:01;;;;;;;4.20;3.10;;;;;;;;;;5410829;26;19993;-79
2024/04/19 09:00:27;;;;;;;5.15;3.13;;;;;;;;;;5381669;26;19989;-79
2024/04/19 09:02:56;;;;;;;3.87;2.80;;;;;;;;;;5379981;26;20005;-79
2024/04/19 09:05:22;;;;;;;4.43;2.90;;;;;;;;;;5409272;26;19992;-79
2024/04/19 09:07:48;;;;;;;4.70;3.00;;;;;;;;;;5379696;26;20038;-79
2024/04/19 09:10:14;;;;;;;5.30;3.37;;;;;;;;;;5411893;26;19993;-79
2024/04/19 09:13:01;;;;;;;;;;;;;;;;;;;;;
2024/04/19 09:15:28;;;;;;;10.13;3.03;;;;;;;;;;5377108;26;20062;-80
2024/04/19 09:17:57;;;;;;;6.07;3.10;;;;;;;;;;5410405;26;19995;-80
2024/04/19 09:25:41;;;;;;;8.20;3.97;;;;;;;;;;5445660;21;20012;-80
2024/04/19 09:28:12;;;;;;;3.88;2.80;;;;;;;;;;5382531;26;19989;-80
2024/04/19 09:30:43;;;;;;;4.88;3.38;;;;;;;;;;5394952;26;19985;-80
2024/04/19 09:33:17;;;;;;;5.57;3.57;;;;;;;;;;5397141;26;19984;-80
2024/04/19 09:35:44;;;;;;;6.40;4.00;;;;;;;;;;5417330;26;19999;-80
2024/04/19 09:38:19;;;;;;;5.23;3.23;;;;;;;;;;5386006;26;19985;-81
2024/04/19 09:40:51;;;;;;;9.70;4.20;;;;;;;;;;5395328;26;19985;-81
2024/04/19 09:43:43;;;;;;;14.40;5.57;;;;;;;;;;5406978;21;20005;-80
2024/04/19 09:46:39;;;;;;;8.17;3.20;;;;;;;;;;5381380;26;20036;-80
2024/04/19 09:49:09;;;;;;;26.47;4.30;;;;;;;;;;5382986;26;20038;-81
2024/04/19 09:51:49;;;;;;;7.27;4.00;;;;;;;;;;5501135;21;20012;-79
2024/04/19 09:54:20;;;;;;;9.37;4.63;;;;;;;;;;5392003;26;19993;-81
2024/04/19 09:56:57;;;;;;;8.40;4.60;;;;;;;;;;5392328;26;20009;-80
2024/04/19 09:59:27;;;;;;;5.17;3.80;;;;;;;;;;5388108;26;20016;-80
2024/04/19 10:01:55;;;;;;;6.40;4.07;;;;;;;;;;5359954;26;19997;-80
2024/04/19 10:04:29;;;;;;;6.47;3.87;;;;;;;;;;5385824;26;20011;-80
2024/04/19 10:16:44;;;;;;;8.63;4.90;;;;;;;;;;5193616;27;20012;-80
2024/04/19 10:19:32;;;;;;;;;;;;;;;;;;;;;
2024/04/19 10:22:02;;;;;;;9.03;5.63;;;;;;;;;;5215025;27;20252;-79
2024/04/19 10:24:48;;;;;;;10.57;4.97;;;;;;;;;;5216204;27;20057;-80
2024/04/19 10:27:16;;;;;;;8.33;4.37;;;;;;;;;;5194517;27;19992;-80
2024/04/19 10:30:00;;;;;;;9.80;5.13;;;;;;;;;;5227051;27;19988;-80
2024/04/19 10:32:52;;;;;;;8.00;5.23;;;;;;;;;;5349678;21;20001;-79
2024/04/19 10:35:21;;;;;;;6.63;4.70;;;;;;;;;;5370899;26;19985;-79
2024/04/19 10:37:47;;;;;;;7.73;4.70;;;;;;;;;;5367312;26;19993;-80
2024/04/19 10:40:20;;;;;;;8.93;4.33;;;;;;;;;;5370436;26;19989;-80
2024/04/19 10:45:55;;;;;;;5.07;3.53;;;;;;;;;;5369064;26;20039;-80
2024/04/19 10:48:24;;;;;;;8.37;4.13;;;;;;;;;;5652644;21;20002;-82
2024/04/19 10:50:59;;;;;;;4.15;2.85;;;;;;;;;;5353213;26;20006;-81
2024/04/19 10:53:32;;;;;;;7.60;4.15;;;;;;;;;;5335875;26;19994;-81
2024/04/19 10:56:10;;;;;;;6.67;3.27;;;;;;;;;;5436716;21;20255;-79
2024/04/19 10:58:45;;;;;;;8.37;3.90;;;;;;;;;;5381838;26;19981;-79
2024/04/19 11:01:15;;;;;;;2.90;2.50;;;;;;;;;;5336694;26;19985;-79
2024/04/19 11:08:55;;;;;;;5.10;1.57;;;;;;;;;;5476605;21;20003;-81
2024/04/19 11:11:33;;;;;;;5.50;2.17;;;;;;;;;;5370427;26;20032;-80
2024/04/19 11:14:20;;;;;;;3.97;1.83;;;;;;;;;;5316255;26;20004;-80
2024/04/19 11:16:46;;;;;;;3.17;1.20;;;;;;;;;;5366398;26;20003;-80
2024/04/19 11:19:15;;;;;;;1.90;1.10;;;;;;;;;;5366744;26;19997;-80
2024/04/19 11:22:05;;;;;;;3.83;1.60;;;;;;;;;;5365407;26;20003;-80
2024/04/19 11:24:41;;;;;;;3.33;1.53;;;;;;;;;;5361518;26;20040;-80
2024/04/19 11:27:16;;;;;;;2.87;1.30;;;;;;;;;;5360275;26;20008;-80
2024/04/19 11:29:52;;;;;;;4.27;1.17;;;;;;;;;;5363093;26;19997;-80
2024/04/19 11:32:27;;;;;;;2.27;1.40;;;;;;;;;;5394153;26;20017;-80
2024/04/19 11:35:08;;;;;;;1.60;1.17;;;;;;;;;;5502056;21;20001;-80
2024/04/19 11:37:34;;;;;;;1.83;1.13;;;;;;;;;;5316116;27;19978;-80
2024/04/19 11:40:18;;;;;;;1.73;0.63;;;;;;;;;;5323654;26;19994;-82
2024/04/19 11:42:47;;;;;;;0.57;0.40;;;;;;;;;;5303484;26;19989;-80
2024/04/19 11:45:22;;;;;;;4.83;0.80;;;;;;;;;;5294339;27;20005;-81
2024/04/19 11:50:34;;;;;;;2.67;0.60;;;;;;;;;;5420091;21;20004;-82
2024/04/19 11:53:21;;;;;;;3.27;0.67;;;;;;;;;;5335434;26;20000;-81
2024/04/19 11:55:50;;;;;;;1.60;0.67;;;;;;;;;;5511316;21;19993;-80
2024/04/19 11:58:28;;;;;;;4.07;0.60;;;;;;;;;;5292014;27;20002;-80
2024/04/19 12:00:55;;;;;;;3.93;1.50;;;;;;;;;;5276985;27;19987;-80
2024/04/19 12:03:30;;;;;;;6.20;1.33;;;;;;;;;;5299525;27;19990;-80
2024/04/19 12:11:30;;;;;;;5.37;1.13;;;;;;;;;;5525016;21;20001;-82
2024/04/19 12:14:06;;;;;;;1.13;0.90;;;;;;;;;;5342647;26;20047;-82
2024/04/19 12:19:26;;;;;;;6.93;1.00;;;;;;;;;;5384278;26;20023;-81
2024/04/19 12:22:22;;;;;;;;;;;;;;;;;;;;;
2024/04/19 12:27:29;;;;;;;1.20;0.80;;;;;;;;;;5419140;21;19961;-80
2024/04/19 12:30:18;;;;;;;8.93;1.10;;;;;;;;;;5372879;26;19981;-80
2024/04/19 12:51:01;;;;;;;0.43;0.33;;;;;;;;;;5358560;26;20042;-80
2024/04/19 12:53:34;;;;;;;2.23;0.50;;;;;;;;;;5387508;26;20222;-80
2024/04/19 12:56:19;;;;;;;;;;;;;;;;;;;;;
2024/04/19 13:12:06;;;;;;;;;;;;;;;;;;;;;
2024/04/19 13:18:29;;;;;;;;;;;;;;;;;;;;;
2024/04/19 13:26:40;;;;;;;;;;;;;;;;;;;;;
2024/04/19 13:29:07;;;;;;;0.70;0.20;;;;;;;;;;5193172;27;20012;-81
2024/04/19 13:31:33;;;;;;;5.37;0.30;;;;;;;;;;5196974;27;20003;-80
2024/04/19 13:39:14;;;;;;;0.20;0.20;;;;;;;;;;5402578;26;20047;-80
2024/04/19 13:42:03;;;;;;;0.23;0.23;;;;;;;;;;5406187;26;19985;-80
2024/04/19 13:47:11;;;;;;;0.83;0.33;;;;;;;;;;5894115;21;19992;-80
2024/04/19 13:49:38;;;;;;;0.20;0.10;;;;;;;;;;5396329;26;19981;-80
2024/04/19 13:52:04;;;;;;;0.60;0.30;;;;;;;;;;5388802;26;20038;-80
2024/04/19 13:55:07;;;;;;;0.10;0.10;;;;;;;;;;5402044;26;19988;-80
2024/04/19 13:57:41;;;;;;;0.30;0.10;;;;;;;;;;5705317;21;20007;-80
2024/04/19 14:00:37;;;;;;;0.43;0.20;;;;;;;;;;5402600;26;20020;-80
2024/04/19 14:03:06;;;;;;;1.50;0.30;;;;;;;;;;5400341;26;19991;-82
2024/04/19 14:05:33;;;;;;;5.60;0.20;;;;;;;;;;5430447;26;19984;-80
2024/04/19 14:07:59;;;;;;;3.00;1.00;;;;;;;;;;5384170;26;20004;-81
2024/04/19 14:10:42;;;;;;;0.70;0.27;;;;;;;;;;5357076;26;20021;-80
2024/04/19 14:13:21;;;;;;;0.53;0.20;;;;;;;;;;5325335;26;20012;-79
2024/04/19 14:16:01;;;;;;;2.13;0.17;;;;;;;;;;5356121;26;20020;-79
2024/04/19 14:25:45;;;;;;;;;;;;;;;;;;;;;
2024/04/19 14:28:14;;;;;;;0.53;0.30;;;;;;;;;;5204536;27;20012;-81
2024/04/19 14:30:43;;;;;;;0.50;0.20;;;;;;;;;;5643547;21;20049;-81
2024/04/19 14:33:09;;;;;;;1.57;0.40;;;;;;;;;;5399139;26;20008;-80
2024/04/19 14:35:44;;;;;;;2.10;0.43;;;;;;;;;;5399692;26;20032;-80
2024/04/19 14:38:10;;;;;;;0.10;0.10;;;;;;;;;;5402769;26;19998;-80
2024/04/19 14:40:39;;;;;;;0.50;0.20;;;;;;;;;;5433463;26;19999;-81
2024/04/19 14:43:24;;;;;;;0.47;0.20;;;;;;;;;;5378361;26;20038;-80
2024/04/19 14:45:51;;;;;;;3.70;0.33;;;;;;;;;;5399729;26;20005;-80
2024/04/19 14:48:19;;;;;;;0.33;0.30;;;;;;;;;;5397520;26;19995;-80
2024/04/19 14:50:45;;;;;;;3.10;0.10;;;;;;;;;;5392750;26;20006;-80
2024/04/19 14:53:16;;;;;;;0.70;0.40;;;;;;;;;;5397147;26;20003;-80
2024/04/19 14:55:47;;;;;;;0.97;0.63;;;;;;;;;;5383472;26;19987;-80
2024/04/19 14:58:18;;;;;;;3.80;0.53;;;;;;;;;;5383159;26;19993;-79
2024/04/19 15:00:44;;;;;;;2.43;0.67;;;;;;;;;;5431221;26;19987;-79
2024/04/19 15:03:12;;;;;;;0.60;0.20;;;;;;;;;;5429528;26;20007;-79
2024/04/19 15:05:41;;;;;;;6.53;0.20;;;;;;;;;;5392861;26;19996;-78
2024/04/19 15:08:27;;;;;;;6.37;0.70;;;;;;;;;;5448361;21;20011;-79
2024/04/19 15:11:13;;;;;;;0.87;0.40;;;;;;;;;;5396922;26;19997;-78
2024/04/19 15:13:49;;;;;;;;;;;;;;;;;;;;;
2024/04/19 15:16:23;;;;;;;1.23;0.63;;;;;;;;;;5367560;26;20004;-77
2024/04/19 15:18:57;;;;;;;0.40;0.30;;;;;;;;;;5398727;26;20047;-77
2024/04/19 15:21:24;;;;;;;1.37;0.87;;;;;;;;;;5371657;26;20060;-78
2024/04/19 15:24:08;;;;;;;1.00;0.30;;;;;;;;;;5453557;21;20012;-77
2024/04/19 15:26:47;;;;;;;;;;;;;;;;;;;;;
2024/04/19 15:29:24;;;;;;;1.27;0.30;;;;;;;;;;5388594;26;20000;-77
2024/04/19 15:31:56;;;;;;;0.77;0.30;;;;;;;;;;5387954;26;20028;-76
2024/04/19 15:34:47;;;;;;;;;;;;;;;;;;;;;
2024/04/19 15:39:53;;;;;;;4.20;1.07;;;;;;;;;;5462199;21;20000;-77
2024/04/19 15:45:04;;;;;;;2.57;0.73;;;;;;;;;;6159753;21;19998;-77
2024/04/19 15:51:02;;;;;;;;;;;;;;;;;;;;;
2024/04/19 15:53:31;;;;;;;0.97;0.60;;;;;;;;;;5463575;21;20453;-77
2024/04/19 15:56:02;;;;;;;1.63;0.40;;;;;;;;;;5369979;26;20009;-77
2024/04/19 15:58:28;;;;;;;4.57;0.93;;;;;;;;;;5375188;26;20005;-77
2024/04/19 16:00:57;;;;;;;1.97;0.53;;;;;;;;;;5371806;26;19997;-78
2024/04/19 16:03:33;;;;;;;;;;;;;;;;;;;;;
2024/04/19 16:06:19;;;;;;;3.10;0.60;;;;;;;;;;5371478;26;19985;-76
2024/04/19 16:08:47;;;;;;;3.00;0.50;;;;;;;;;;5376468;26;19992;-78
2024/04/19 16:11:16;;;;;;;2.53;0.60;;;;;;;;;;5369728;26;20005;-78
2024/04/19 16:13:49;;;;;;;0.93;0.63;;;;;;;;;;5370981;26;20809;-78
2024/04/19 16:19:10;;;;;;;2.10;0.30;;;;;;;;;;5367540;26;19992;-77
2024/04/19 16:21:40;;;;;;;1.93;0.73;;;;;;;;;;5549390;21;20054;-77
2024/04/19 16:24:11;;;;;;;2.90;0.60;;;;;;;;;;5411759;26;20018;-77
2024/04/19 16:26:37;;;;;;;2.50;0.50;;;;;;;;;;5417664;26;20004;-77
2024/04/19 16:29:16;;;;;;;2.40;0.80;;;;;;;;;;5390387;26;19999;-77
2024/04/19 16:31:47;;;;;;;5.17;0.90;;;;;;;;;;5418806;26;19976;-77
2024/04/19 16:34:21;;;;;;;2.90;1.00;;;;;;;;;;5401450;26;20054;-77
2024/04/19 16:36:50;;;;;;;1.53;0.83;;;;;;;;;;5420484;26;19976;-77
2024/04/19 16:39:19;;;;;;;7.50;0.93;;;;;;;;;;5415768;26;20045;-78
2024/04/19 16:41:45;;;;;;;1.77;0.50;;;;;;;;;;5387147;26;19996;-77
2024/04/19 16:44:15;;;;;;;3.83;0.87;;;;;;;;;;5419661;26;20010;-76
2024/04/19 16:46:41;;;;;;;4.93;0.80;;;;;;;;;;5392156;26;19987;-76
2024/04/19 16:49:15;;;;;;;4.73;1.10;;;;;;;;;;5415976;26;20348;-76
2024/04/19 16:51:46;;;;;;;3.50;0.63;;;;;;;;;;5390247;26;19993;-76
2024/04/19 16:54:16;;;;;;;1.97;1.17;;;;;;;;;;5413248;26;20004;-75
2024/04/19 16:56:45;;;;;;;3.23;0.77;;;;;;;;;;5394538;26;19990;-76
2024/04/19 16:59:11;;;;;;;5.40;1.07;;;;;;;;;;5391574;26;19999;-76
2024/04/19 17:01:39;;;;;;;2.60;1.10;;;;;;;;;;5387613;26;20009;-76
2024/04/19 17:04:16;;;;;;;7.07;1.00;;;;;;;;;;5399269;26;19988;-76
2024/04/19 17:06:43;;;;;;;11.13;2.33;;;;;;;;;;5414717;26;20003;-76
2024/04/19 17:09:20;;;;;;;3.90;0.70;;;;;;;;;;5385464;26;20000;-76
2024/04/19 17:11:48;;;;;;;4.97;0.70;;;;;;;;;;5419544;26;20000;-77
2024/04/19 17:14:26;;;;;;;7.60;0.90;;;;;;;;;;5407608;26;19991;-75
2024/04/19 17:16:54;;;;;;;2.70;0.60;;;;;;;;;;5420319;26;19992;-75